createdAt,value
2022-08-31T00:00:47.000Z,47.33
2022-08-31T00:01:47.000Z,47.36
2022-08-31T00:02:47.000Z,47.20
2022-08-31T00:03:48.000Z,47.40
2022-08-31T00:04:42.000Z,47.77
2022-08-31T00:05:43.000Z,47.84
2022-08-31T00:06:42.000Z,48.07
2022-08-31T00:07:42.000Z,48.20
2022-08-31T00:08:43.000Z,48.16
2022-08-31T00:09:43.000Z,47.97
2022-08-31T00:10:44.000Z,48.22
2022-08-31T00:11:42.000Z,48.27
2022-08-31T00:12:45.000Z,48.32
2022-08-31T00:13:42.000Z,48.45
2022-08-31T00:14:43.000Z,48.22
2022-08-31T00:15:42.000Z,47.82
2022-08-31T00:16:43.000Z,47.75
2022-08-31T00:17:43.000Z,47.62
2022-08-31T00:18:42.000Z,47.58
2022-08-31T00:19:42.000Z,47.68
2022-08-31T00:20:44.000Z,47.76
2022-08-31T00:21:42.000Z,47.78
2022-08-31T00:22:43.000Z,47.65
2022-08-31T00:23:42.000Z,47.80
2022-08-31T00:24:42.000Z,48.03
2022-08-31T00:25:46.000Z,48.32
2022-08-31T00:26:42.000Z,48.13
2022-08-31T00:27:42.000Z,48.32
2022-08-31T00:28:43.000Z,48.35
2022-08-31T00:29:42.000Z,48.40
2022-08-31T00:30:43.000Z,48.29
2022-08-31T00:31:42.000Z,48.32
2022-08-31T00:32:42.000Z,48.22
2022-08-31T00:33:43.000Z,47.99
2022-08-31T00:34:43.000Z,48.33
2022-08-31T00:35:43.000Z,48.40
2022-08-31T00:36:45.000Z,48.49
2022-08-31T00:37:42.000Z,49.18
2022-08-31T00:38:43.000Z,50.65
2022-08-31T00:39:43.000Z,50.69
2022-08-31T00:40:44.000Z,51.57
2022-08-31T00:41:42.000Z,52.15
2022-08-31T00:42:42.000Z,52.87
2022-08-31T00:43:50.000Z,52.72
2022-08-31T00:44:43.000Z,54.68
2022-08-31T00:45:42.000Z,55.30
2022-08-31T00:46:43.000Z,54.35
2022-08-31T00:47:42.000Z,53.90
2022-08-31T00:48:54.000Z,55.50
2022-08-31T00:49:45.000Z,56.83
2022-08-31T00:50:42.000Z,56.78
2022-08-31T00:51:54.000Z,56.79
2022-08-31T00:52:48.000Z,57.90
2022-08-31T00:53:44.000Z,58.54
2022-08-31T00:54:50.000Z,58.30
2022-08-31T00:55:43.000Z,59.13
2022-08-31T00:56:44.000Z,58.20
2022-08-31T00:57:46.000Z,59.57
2022-08-31T00:58:43.000Z,58.84
2022-08-31T00:59:44.000Z,58.81
2022-08-31T01:00:44.000Z,59.78
2022-08-31T01:01:43.000Z,59.21
2022-08-31T01:02:43.000Z,59.57
2022-08-31T01:03:42.000Z,60.23
2022-08-31T01:04:43.000Z,60.71
2022-08-31T01:05:43.000Z,60.99
2022-08-31T01:06:44.000Z,61.88
2022-08-31T01:07:47.000Z,61.94
2022-08-31T01:08:44.000Z,61.92
2022-08-31T01:09:43.000Z,62.31
2022-08-31T01:10:43.000Z,63.84
2022-08-31T01:11:43.000Z,62.95
2022-08-31T01:12:45.000Z,63.68
2022-08-31T01:13:46.000Z,64.94
2022-08-31T01:14:42.000Z,65.76
2022-08-31T01:15:49.000Z,65.44
2022-08-31T01:16:47.000Z,65.57
2022-08-31T01:17:46.000Z,66.46
2022-08-31T01:18:44.000Z,65.82
2022-08-31T01:19:55.000Z,65.95
2022-08-31T01:20:58.000Z,66.37
2022-08-31T01:21:54.000Z,66.27
2022-08-31T01:22:52.000Z,64.54
2022-08-31T01:23:43.000Z,64.61
2022-08-31T01:24:46.000Z,64.04
2022-08-31T01:25:45.000Z,66.24
2022-08-31T01:26:42.000Z,67.62
2022-08-31T01:27:43.000Z,67.16
2022-08-31T01:28:43.000Z,67.23
2022-08-31T01:29:42.000Z,65.11
2022-08-31T01:30:54.000Z,66.51
2022-08-31T01:31:45.000Z,66.80
2022-08-31T01:32:42.000Z,68.61
2022-08-31T01:33:42.000Z,67.92
2022-08-31T01:34:42.000Z,67.57
2022-08-31T01:35:43.000Z,68.59
2022-08-31T01:36:42.000Z,69.34
2022-08-31T01:37:42.000Z,69.95
2022-08-31T01:38:42.000Z,70.48
2022-08-31T01:39:42.000Z,70.47
2022-08-31T01:40:47.000Z,71.35
2022-08-31T01:41:42.000Z,70.39
2022-08-31T01:42:42.000Z,69.57
2022-08-31T01:43:42.000Z,70.27
2022-08-31T01:44:42.000Z,70.08
2022-08-31T01:45:42.000Z,70.72
2022-08-31T01:46:43.000Z,70.49
2022-08-31T01:47:42.000Z,71.31
2022-08-31T01:48:44.000Z,70.66
2022-08-31T01:49:42.000Z,71.45
2022-08-31T01:50:42.000Z,70.35
2022-08-31T01:51:43.000Z,71.13
2022-08-31T01:52:42.000Z,70.95
2022-08-31T01:53:44.000Z,70.36
2022-08-31T01:54:42.000Z,70.35
2022-08-31T01:55:42.000Z,71.51
2022-08-31T01:56:45.000Z,71.00
2022-08-31T01:57:42.000Z,71.71
2022-08-31T01:58:42.000Z,70.55
2022-08-31T01:59:42.000Z,70.97
2022-08-31T02:00:42.000Z,71.94
2022-08-31T02:01:45.000Z,71.61
2022-08-31T02:02:42.000Z,70.29
2022-08-31T02:03:42.000Z,69.70
2022-08-31T02:04:42.000Z,72.14
2022-08-31T02:05:42.000Z,71.92
2022-08-31T02:06:46.000Z,71.53
2022-08-31T02:07:43.000Z,72.39
2022-08-31T02:08:42.000Z,72.70
2022-08-31T02:09:42.000Z,72.57
2022-08-31T02:10:43.000Z,73.41
2022-08-31T02:11:42.000Z,74.21
2022-08-31T02:12:43.000Z,74.07
2022-08-31T02:13:43.000Z,73.92
2022-08-31T02:14:42.000Z,73.45
2022-08-31T02:15:43.000Z,73.12
2022-08-31T02:16:42.000Z,71.85
2022-08-31T02:17:43.000Z,72.34
2022-08-31T02:18:42.000Z,72.46
2022-08-31T02:19:42.000Z,71.98
2022-08-31T02:20:42.000Z,72.00
2022-08-31T02:21:42.000Z,72.21
2022-08-31T02:22:43.000Z,72.45
2022-08-31T02:23:43.000Z,72.64
2022-08-31T02:24:42.000Z,72.82
2022-08-31T02:25:42.000Z,72.16
2022-08-31T02:26:43.000Z,71.01
2022-08-31T02:27:43.000Z,70.27
2022-08-31T02:28:43.000Z,71.03
2022-08-31T02:29:42.000Z,71.91
2022-08-31T02:30:43.000Z,70.66
2022-08-31T02:31:42.000Z,70.89
2022-08-31T02:32:43.000Z,70.62
2022-08-31T02:33:43.000Z,70.68
2022-08-31T02:34:43.000Z,71.22
2022-08-31T02:35:43.000Z,70.72
2022-08-31T02:36:43.000Z,70.17
2022-08-31T02:37:42.000Z,69.95
2022-08-31T02:38:42.000Z,70.64
2022-08-31T02:39:43.000Z,71.80
2022-08-31T02:40:43.000Z,71.28
2022-08-31T02:41:42.000Z,71.75
2022-08-31T02:42:43.000Z,71.07
2022-08-31T02:43:43.000Z,71.02
2022-08-31T02:44:42.000Z,70.63
2022-08-31T02:45:43.000Z,70.37
2022-08-31T02:46:43.000Z,69.95
2022-08-31T02:47:43.000Z,69.88
2022-08-31T02:48:43.000Z,70.97
2022-08-31T02:49:43.000Z,70.97
2022-08-31T02:50:46.000Z,70.85
2022-08-31T02:51:43.000Z,69.91
2022-08-31T02:52:44.000Z,71.50
2022-08-31T02:53:43.000Z,70.64
2022-08-31T02:54:42.000Z,70.71
2022-08-31T02:55:43.000Z,71.49
2022-08-31T02:56:42.000Z,70.60
2022-08-31T02:57:43.000Z,70.82
2022-08-31T02:58:43.000Z,71.26
2022-08-31T02:59:42.000Z,71.47
2022-08-31T03:00:45.000Z,71.33
2022-08-31T03:01:42.000Z,70.87
2022-08-31T03:02:43.000Z,71.70
2022-08-31T03:03:42.000Z,71.28
2022-08-31T03:04:43.000Z,72.32
2022-08-31T03:05:43.000Z,70.50
2022-08-31T03:06:42.000Z,71.89
2022-08-31T03:07:44.000Z,72.77
2022-08-31T03:08:42.000Z,72.91
2022-08-31T03:09:43.000Z,72.97
2022-08-31T03:10:42.000Z,72.43
2022-08-31T03:11:42.000Z,73.05
2022-08-31T03:12:42.000Z,72.42
2022-08-31T03:13:43.000Z,72.78
2022-08-31T03:14:42.000Z,72.35
2022-08-31T03:15:42.000Z,72.75
2022-08-31T03:16:43.000Z,73.26
2022-08-31T03:17:43.000Z,73.51
2022-08-31T03:18:43.000Z,73.00
2022-08-31T03:19:42.000Z,72.50
2022-08-31T03:20:42.000Z,72.26
2022-08-31T03:21:44.000Z,73.22
2022-08-31T03:22:42.000Z,73.34
2022-08-31T03:23:43.000Z,72.89
2022-08-31T03:24:42.000Z,72.79
2022-08-31T03:25:42.000Z,73.67
2022-08-31T03:26:44.000Z,73.62
2022-08-31T03:27:44.000Z,73.69
2022-08-31T03:28:42.000Z,74.19
2022-08-31T03:29:42.000Z,74.07
2022-08-31T03:30:43.000Z,73.90
2022-08-31T03:31:43.000Z,74.66
2022-08-31T03:32:44.000Z,74.85
2022-08-31T03:33:42.000Z,75.34
2022-08-31T03:34:42.000Z,75.59
2022-08-31T03:35:44.000Z,76.17
2022-08-31T03:36:42.000Z,76.02
2022-08-31T03:37:43.000Z,75.90
2022-08-31T03:38:42.000Z,76.27
2022-08-31T03:39:43.000Z,75.98
2022-08-31T03:40:43.000Z,75.61
2022-08-31T03:41:42.000Z,74.51
2022-08-31T03:42:43.000Z,75.42
2022-08-31T03:43:42.000Z,75.63
2022-08-31T03:44:45.000Z,75.98
2022-08-31T03:45:42.000Z,76.51
2022-08-31T03:46:43.000Z,76.48
2022-08-31T03:47:43.000Z,77.14
2022-08-31T03:48:45.000Z,77.32
2022-08-31T03:49:42.000Z,77.45
2022-08-31T03:50:43.000Z,77.47
2022-08-31T03:51:43.000Z,77.38
2022-08-31T03:52:43.000Z,77.34
2022-08-31T03:53:43.000Z,76.89
2022-08-31T03:54:43.000Z,76.86
2022-08-31T03:55:43.000Z,76.63
2022-08-31T03:56:42.000Z,76.57
2022-08-31T03:57:43.000Z,76.64
2022-08-31T03:58:43.000Z,76.64
2022-08-31T03:59:42.000Z,76.44
2022-08-31T04:00:43.000Z,75.71
2022-08-31T04:01:42.000Z,76.21
2022-08-31T04:02:43.000Z,75.83
2022-08-31T04:03:42.000Z,76.04
2022-08-31T04:04:48.000Z,75.97
2022-08-31T04:05:43.000Z,75.97
2022-08-31T04:06:45.000Z,76.08
2022-08-31T04:07:43.000Z,76.30
2022-08-31T04:08:42.000Z,76.36
2022-08-31T04:09:44.000Z,76.37
2022-08-31T04:10:45.000Z,76.27
2022-08-31T04:11:43.000Z,75.95
2022-08-31T04:12:42.000Z,76.37
2022-08-31T04:13:43.000Z,76.49
2022-08-31T04:14:42.000Z,76.43
2022-08-31T04:15:42.000Z,76.51
2022-08-31T04:16:42.000Z,76.59
2022-08-31T04:17:44.000Z,75.88
2022-08-31T04:18:44.000Z,75.55
2022-08-31T04:19:42.000Z,75.29
2022-08-31T04:20:42.000Z,75.33
2022-08-31T04:21:42.000Z,74.71
2022-08-31T04:22:42.000Z,74.47
2022-08-31T04:23:42.000Z,74.88
2022-08-31T04:24:42.000Z,74.45
2022-08-31T04:25:42.000Z,74.20
2022-08-31T04:26:42.000Z,74.36
2022-08-31T04:27:42.000Z,74.36
2022-08-31T04:28:42.000Z,74.86
2022-08-31T04:29:42.000Z,74.82
2022-08-31T04:30:42.000Z,74.94
2022-08-31T04:31:43.000Z,74.72
2022-08-31T04:32:42.000Z,74.22
2022-08-31T04:33:43.000Z,73.95
2022-08-31T04:34:42.000Z,74.40
2022-08-31T04:35:42.000Z,74.03
2022-08-31T04:36:45.000Z,74.52
2022-08-31T04:37:43.000Z,75.02
2022-08-31T04:38:45.000Z,74.90
2022-08-31T04:39:43.000Z,74.97
2022-08-31T04:40:42.000Z,74.39
2022-08-31T04:41:43.000Z,74.52
2022-08-31T04:42:43.000Z,74.43
2022-08-31T04:43:45.000Z,74.39
2022-08-31T04:44:43.000Z,74.62
2022-08-31T04:45:43.000Z,74.31
2022-08-31T04:46:43.000Z,74.65
2022-08-31T04:47:43.000Z,73.96
2022-08-31T04:48:43.000Z,73.96
2022-08-31T04:49:43.000Z,73.56
2022-08-31T04:50:43.000Z,73.95
2022-08-31T04:51:43.000Z,73.74
2022-08-31T04:52:43.000Z,73.71
2022-08-31T04:53:43.000Z,73.59
2022-08-31T04:54:43.000Z,73.38
2022-08-31T04:55:43.000Z,73.24
2022-08-31T04:56:44.000Z,73.86
2022-08-31T04:57:43.000Z,73.42
2022-08-31T04:58:49.000Z,73.94
2022-08-31T04:59:43.000Z,73.57
2022-08-31T05:00:43.000Z,73.65
2022-08-31T05:01:44.000Z,73.29
2022-08-31T05:02:43.000Z,72.83
2022-08-31T05:03:43.000Z,72.98
2022-08-31T05:04:43.000Z,72.95
2022-08-31T05:05:45.000Z,73.50
2022-08-31T05:06:44.000Z,72.95
2022-08-31T05:07:43.000Z,73.05
2022-08-31T05:08:43.000Z,72.92
2022-08-31T05:09:43.000Z,73.02
2022-08-31T05:10:43.000Z,72.75
2022-08-31T05:11:43.000Z,72.68
2022-08-31T05:12:45.000Z,72.36
2022-08-31T05:13:43.000Z,73.30
2022-08-31T05:14:42.000Z,73.20
2022-08-31T05:15:43.000Z,73.30
2022-08-31T05:16:42.000Z,73.46
2022-08-31T05:17:42.000Z,72.80
2022-08-31T05:18:44.000Z,72.41
2022-08-31T05:19:43.000Z,72.56
2022-08-31T05:20:45.000Z,72.64
2022-08-31T05:21:43.000Z,72.69
2022-08-31T05:22:42.000Z,72.73
2022-08-31T05:23:45.000Z,72.59
2022-08-31T05:24:43.000Z,72.80
2022-08-31T05:25:43.000Z,72.03
2022-08-31T05:26:47.000Z,71.84
2022-08-31T05:27:42.000Z,71.78
2022-08-31T05:28:43.000Z,71.65
2022-08-31T05:29:42.000Z,71.63
2022-08-31T05:30:43.000Z,71.41
2022-08-31T05:31:43.000Z,71.58
2022-08-31T05:32:44.000Z,71.36
2022-08-31T05:33:43.000Z,71.24
2022-08-31T05:34:42.000Z,71.23
2022-08-31T05:35:43.000Z,71.27
2022-08-31T05:36:47.000Z,71.35
2022-08-31T05:37:42.000Z,71.41
2022-08-31T05:38:42.000Z,71.69
2022-08-31T05:39:42.000Z,71.87
2022-08-31T05:40:49.000Z,71.94
2022-08-31T05:41:44.000Z,71.84
2022-08-31T05:42:42.000Z,72.07
2022-08-31T05:43:42.000Z,71.59
2022-08-31T05:44:42.000Z,71.88
2022-08-31T05:45:42.000Z,72.60
2022-08-31T05:46:42.000Z,72.10
2022-08-31T05:47:42.000Z,72.36
2022-08-31T05:48:43.000Z,73.62
2022-08-31T05:49:43.000Z,73.22
2022-08-31T05:50:42.000Z,73.21
2022-08-31T05:51:42.000Z,73.03
2022-08-31T05:52:43.000Z,73.10
2022-08-31T05:53:42.000Z,73.17
2022-08-31T05:54:42.000Z,73.41
2022-08-31T05:55:42.000Z,72.77
2022-08-31T05:56:43.000Z,73.28
2022-08-31T05:57:42.000Z,73.33
2022-08-31T05:58:43.000Z,73.66
2022-08-31T05:59:43.000Z,74.00
2022-08-31T06:00:42.000Z,74.40
2022-08-31T06:01:43.000Z,73.67
2022-08-31T06:02:42.000Z,73.23
2022-08-31T06:03:43.000Z,73.09
2022-08-31T06:04:42.000Z,73.41
2022-08-31T06:05:42.000Z,73.83
2022-08-31T06:06:42.000Z,73.47
2022-08-31T06:07:42.000Z,74.35
2022-08-31T06:08:43.000Z,74.46
2022-08-31T06:09:42.000Z,74.86
2022-08-31T06:10:43.000Z,74.43
2022-08-31T06:11:42.000Z,74.66
2022-08-31T06:12:43.000Z,74.03
2022-08-31T06:13:43.000Z,74.78
2022-08-31T06:14:44.000Z,74.70
2022-08-31T06:15:43.000Z,74.24
2022-08-31T06:16:43.000Z,75.62
2022-08-31T06:17:43.000Z,74.99
2022-08-31T06:18:49.000Z,74.49
2022-08-31T06:19:42.000Z,74.86
2022-08-31T06:20:42.000Z,74.55
2022-08-31T06:21:44.000Z,74.77
2022-08-31T06:22:46.000Z,74.31
2022-08-31T06:23:43.000Z,74.99
2022-08-31T06:24:42.000Z,74.82
2022-08-31T06:25:42.000Z,74.05
2022-08-31T06:26:55.000Z,73.66
2022-08-31T06:27:48.000Z,75.34
2022-08-31T06:28:48.000Z,74.23
2022-08-31T06:29:44.000Z,74.59
2022-08-31T06:30:43.000Z,74.68
2022-08-31T06:31:45.000Z,74.60
2022-08-31T06:32:43.000Z,74.24
2022-08-31T06:33:42.000Z,74.35
2022-08-31T06:34:42.000Z,74.62
2022-08-31T06:35:43.000Z,74.20
2022-08-31T06:36:42.000Z,74.02
2022-08-31T06:37:42.000Z,74.04
2022-08-31T06:38:43.000Z,73.98
2022-08-31T06:39:42.000Z,73.31
2022-08-31T06:40:42.000Z,72.96
2022-08-31T06:41:42.000Z,72.76
2022-08-31T06:42:42.000Z,72.38
2022-08-31T06:43:43.000Z,73.52
2022-08-31T06:44:43.000Z,73.30
2022-08-31T06:45:43.000Z,72.61
2022-08-31T06:46:42.000Z,72.93
2022-08-31T06:47:43.000Z,72.95
2022-08-31T06:48:43.000Z,72.66
2022-08-31T06:49:42.000Z,72.50
2022-08-31T06:50:43.000Z,72.23
2022-08-31T06:51:43.000Z,72.66
2022-08-31T06:52:43.000Z,72.73
2022-08-31T06:53:43.000Z,72.29
2022-08-31T06:54:42.000Z,72.13
2022-08-31T06:55:42.000Z,71.92
2022-08-31T06:56:43.000Z,72.04
2022-08-31T06:57:43.000Z,71.80
2022-08-31T06:58:46.000Z,71.65
2022-08-31T06:59:43.000Z,71.89
2022-08-31T07:00:42.000Z,71.70
2022-08-31T07:01:42.000Z,71.72
2022-08-31T07:02:42.000Z,72.14
2022-08-31T07:03:44.000Z,71.79
2022-08-31T07:04:42.000Z,71.47
2022-08-31T07:05:43.000Z,71.39
2022-08-31T07:06:44.000Z,72.45
2022-08-31T07:07:43.000Z,72.93
2022-08-31T07:08:45.000Z,72.99
2022-08-31T07:09:43.000Z,72.55
2022-08-31T07:10:43.000Z,72.55
2022-08-31T07:11:48.000Z,73.27
2022-08-31T07:12:42.000Z,73.91
2022-08-31T07:13:43.000Z,72.94
2022-08-31T07:14:45.000Z,72.96
2022-08-31T07:15:42.000Z,72.64
2022-08-31T07:16:44.000Z,72.10
2022-08-31T07:17:43.000Z,72.34
2022-08-31T07:18:44.000Z,72.38
2022-08-31T07:19:42.000Z,72.15
2022-08-31T07:20:42.000Z,72.19
2022-08-31T07:21:46.000Z,70.93
2022-08-31T07:22:42.000Z,71.13
2022-08-31T07:23:44.000Z,70.48
2022-08-31T07:24:43.000Z,70.11
2022-08-31T07:25:43.000Z,70.05
2022-08-31T07:26:45.000Z,70.59
2022-08-31T07:27:43.000Z,70.43
2022-08-31T07:28:43.000Z,70.20
2022-08-31T07:29:43.000Z,70.35
2022-08-31T07:30:44.000Z,70.59
2022-08-31T07:31:46.000Z,71.48
2022-08-31T07:32:43.000Z,70.91
2022-08-31T07:33:43.000Z,70.91
2022-08-31T07:34:43.000Z,70.38
2022-08-31T07:35:43.000Z,70.23
2022-08-31T07:36:48.000Z,70.58
2022-08-31T07:37:48.000Z,70.51
2022-08-31T07:38:48.000Z,70.81
2022-08-31T07:39:48.000Z,71.42
2022-08-31T07:40:48.000Z,71.50
2022-08-31T07:41:48.000Z,71.41
2022-08-31T07:42:44.000Z,72.09
2022-08-31T07:43:42.000Z,71.25
2022-08-31T07:44:49.000Z,72.08
2022-08-31T07:45:42.000Z,71.95
2022-08-31T07:46:45.000Z,72.67
2022-08-31T07:47:44.000Z,72.96
2022-08-31T07:48:42.000Z,72.91
2022-08-31T07:49:52.000Z,72.98
2022-08-31T07:50:45.000Z,73.36
2022-08-31T07:51:48.000Z,73.73
2022-08-31T07:52:49.000Z,73.88
2022-08-31T07:53:43.000Z,74.64
2022-08-31T07:54:42.000Z,74.66
2022-08-31T07:55:44.000Z,74.41
2022-08-31T07:56:42.000Z,74.07
2022-08-31T07:57:43.000Z,75.32
2022-08-31T07:58:42.000Z,75.95
2022-08-31T07:59:43.000Z,76.93
2022-08-31T08:00:47.000Z,78.25
2022-08-31T08:01:45.000Z,78.29
2022-08-31T08:02:45.000Z,78.09
2022-08-31T08:03:43.000Z,78.37
2022-08-31T08:04:42.000Z,78.97
2022-08-31T08:05:42.000Z,78.93
2022-08-31T08:06:42.000Z,78.58
2022-08-31T08:07:42.000Z,78.92
2022-08-31T08:08:43.000Z,78.83
2022-08-31T08:09:42.000Z,79.20
2022-08-31T08:10:43.000Z,79.32
2022-08-31T08:11:44.000Z,79.54
2022-08-31T08:12:45.000Z,79.82
2022-08-31T08:13:43.000Z,80.20
2022-08-31T08:14:43.000Z,79.04
2022-08-31T08:15:43.000Z,78.89
2022-08-31T08:16:43.000Z,79.72
2022-08-31T08:17:43.000Z,79.94
2022-08-31T08:18:43.000Z,80.07
2022-08-31T08:19:42.000Z,78.90
2022-08-31T08:20:42.000Z,79.52
2022-08-31T08:21:45.000Z,80.01
2022-08-31T08:22:43.000Z,80.40
2022-08-31T08:23:42.000Z,81.14
2022-08-31T08:24:45.000Z,80.79
2022-08-31T08:25:45.000Z,81.09
2022-08-31T08:26:45.000Z,81.19
2022-08-31T08:27:43.000Z,80.63
2022-08-31T08:28:42.000Z,79.92
2022-08-31T08:29:43.000Z,80.10
2022-08-31T08:30:44.000Z,80.25
2022-08-31T08:31:43.000Z,80.75
2022-08-31T08:32:43.000Z,81.33
2022-08-31T08:33:44.000Z,81.04
2022-08-31T08:34:43.000Z,81.12
2022-08-31T08:35:43.000Z,81.24
2022-08-31T08:36:43.000Z,82.10
2022-08-31T08:37:44.000Z,83.74
2022-08-31T08:38:48.000Z,84.06
2022-08-31T08:39:43.000Z,84.89
2022-08-31T08:40:43.000Z,85.08
2022-08-31T08:41:45.000Z,85.40
2022-08-31T08:42:43.000Z,85.22
2022-08-31T08:43:46.000Z,85.75
2022-08-31T08:44:42.000Z,86.12
2022-08-31T08:45:44.000Z,86.66
2022-08-31T08:46:50.000Z,85.87
2022-08-31T08:47:43.000Z,85.96
2022-08-31T08:48:46.000Z,85.56
2022-08-31T08:49:50.000Z,86.22
2022-08-31T08:50:42.000Z,86.22
2022-08-31T08:51:44.000Z,86.64
2022-08-31T08:52:44.000Z,87.26
2022-08-31T08:53:46.000Z,87.29
2022-08-31T08:54:45.000Z,86.93
2022-08-31T08:55:42.000Z,86.95
2022-08-31T08:56:46.000Z,86.69
2022-08-31T08:57:44.000Z,87.65
2022-08-31T08:58:42.000Z,87.80
2022-08-31T08:59:44.000Z,87.53
2022-08-31T09:00:50.000Z,87.70
2022-08-31T09:01:48.000Z,87.83
2022-08-31T09:02:52.000Z,87.84
2022-08-31T09:03:52.000Z,87.73
2022-08-31T09:04:53.000Z,87.96
2022-08-31T09:05:55.000Z,87.34
2022-08-31T09:06:57.000Z,86.40
2022-08-31T09:08:02.000Z,86.52
2022-08-31T09:09:10.000Z,86.89
2022-08-31T09:09:58.000Z,86.87
2022-08-31T09:10:57.000Z,86.84
2022-08-31T09:11:55.000Z,86.45
2022-08-31T09:12:54.000Z,86.81
2022-08-31T09:14:01.000Z,87.16
2022-08-31T09:14:56.000Z,86.13
2022-08-31T09:15:57.000Z,86.21
2022-08-31T09:17:02.000Z,86.29
2022-08-31T09:17:53.000Z,86.34
2022-08-31T09:18:48.000Z,86.90
2022-08-31T09:19:47.000Z,86.69
2022-08-31T09:21:13.000Z,86.83
2022-08-31T09:21:46.000Z,87.44
2022-08-31T09:22:52.000Z,87.48
2022-08-31T09:23:53.000Z,87.78
2022-08-31T09:24:43.000Z,88.02
2022-08-31T09:25:49.000Z,87.95
2022-08-31T09:26:55.000Z,87.65
2022-08-31T09:28:01.000Z,87.57
2022-08-31T09:28:46.000Z,87.62
2022-08-31T09:29:51.000Z,87.97
2022-08-31T09:30:52.000Z,88.16
2022-08-31T09:31:45.000Z,87.81
2022-08-31T09:32:54.000Z,87.69
2022-08-31T09:33:46.000Z,88.13
2022-08-31T09:34:52.000Z,88.38
2022-08-31T09:35:43.000Z,88.34
2022-08-31T09:36:42.000Z,88.19
2022-08-31T09:37:57.000Z,88.00
2022-08-31T09:38:46.000Z,88.24
2022-08-31T09:39:49.000Z,87.54
2022-08-31T09:40:45.000Z,87.56
2022-08-31T09:41:44.000Z,86.86
2022-08-31T09:42:46.000Z,87.19
2022-08-31T09:43:44.000Z,86.91
2022-08-31T09:44:47.000Z,86.92
2022-08-31T09:45:52.000Z,86.51
2022-08-31T09:46:51.000Z,86.35
2022-08-31T09:47:51.000Z,86.06
2022-08-31T09:48:52.000Z,86.40
2022-08-31T09:49:54.000Z,86.81
2022-08-31T09:50:45.000Z,86.31
2022-08-31T09:51:42.000Z,85.91
2022-08-31T09:52:47.000Z,86.26
2022-08-31T09:53:48.000Z,86.30
2022-08-31T09:54:57.000Z,85.71
2022-08-31T09:55:42.000Z,85.92
2022-08-31T09:56:57.000Z,86.06
2022-08-31T09:57:54.000Z,85.76
2022-08-31T09:58:49.000Z,85.36
2022-08-31T09:59:48.000Z,84.84
2022-08-31T10:00:45.000Z,84.87
2022-08-31T10:01:44.000Z,84.39
2022-08-31T10:02:44.000Z,84.95
2022-08-31T10:03:43.000Z,85.32
2022-08-31T10:04:49.000Z,84.90
2022-08-31T10:05:43.000Z,83.97
2022-08-31T10:06:57.000Z,84.74
2022-08-31T10:08:03.000Z,85.13
2022-08-31T10:08:51.000Z,85.53
2022-08-31T10:10:02.000Z,85.64
2022-08-31T10:10:45.000Z,85.29
2022-08-31T10:11:49.000Z,84.23
2022-08-31T10:12:51.000Z,84.77
2022-08-31T10:13:51.000Z,84.87
2022-08-31T10:14:51.000Z,86.90
2022-08-31T10:15:50.000Z,86.60
2022-08-31T10:16:47.000Z,86.97
2022-08-31T10:17:55.000Z,87.22
2022-08-31T10:18:55.000Z,86.83
2022-08-31T10:19:53.000Z,86.66
2022-08-31T10:20:48.000Z,86.31
2022-08-31T10:21:49.000Z,86.90
2022-08-31T10:22:51.000Z,87.43
2022-08-31T10:23:58.000Z,86.28
2022-08-31T10:24:49.000Z,86.64
2022-08-31T10:25:53.000Z,86.80
2022-08-31T10:26:50.000Z,87.05
2022-08-31T10:27:52.000Z,86.14
2022-08-31T10:28:50.000Z,86.26
2022-08-31T10:29:58.000Z,86.06
2022-08-31T10:30:53.000Z,85.56
2022-08-31T10:31:47.000Z,85.33
2022-08-31T10:33:00.000Z,85.40
2022-08-31T10:33:57.000Z,84.96
2022-08-31T10:34:57.000Z,85.35
2022-08-31T10:35:52.000Z,85.63
2022-08-31T10:36:44.000Z,85.51
2022-08-31T10:37:52.000Z,85.06
2022-08-31T10:38:47.000Z,84.80
2022-08-31T10:39:48.000Z,86.17
2022-08-31T10:40:54.000Z,85.38
2022-08-31T10:41:46.000Z,85.98
2022-08-31T10:42:49.000Z,85.79
2022-08-31T10:43:54.000Z,85.88
2022-08-31T10:44:59.000Z,85.92
2022-08-31T10:45:47.000Z,86.23
2022-08-31T10:46:43.000Z,85.27
2022-08-31T10:47:45.000Z,85.34
2022-08-31T10:48:49.000Z,85.54
2022-08-31T10:49:42.000Z,84.97
2022-08-31T10:50:54.000Z,84.95
2022-08-31T10:51:57.000Z,84.11
2022-08-31T10:52:56.000Z,85.51
2022-08-31T10:53:52.000Z,86.47
2022-08-31T10:54:54.000Z,85.89
2022-08-31T10:56:06.000Z,85.42
2022-08-31T10:57:03.000Z,84.81
2022-08-31T10:57:49.000Z,85.65
2022-08-31T10:59:05.000Z,85.63
2022-08-31T10:59:53.000Z,85.45
2022-08-31T11:01:04.000Z,85.02
2022-08-31T11:01:51.000Z,84.86
2022-08-31T11:02:53.000Z,85.09
2022-08-31T11:03:52.000Z,85.03
2022-08-31T11:04:52.000Z,83.83
2022-08-31T11:06:18.000Z,82.84
2022-08-31T11:06:52.000Z,83.72
2022-08-31T11:07:57.000Z,83.75
2022-08-31T11:08:58.000Z,83.98
2022-08-31T11:09:54.000Z,83.00
2022-08-31T11:10:52.000Z,83.63
2022-08-31T11:11:50.000Z,85.27
2022-08-31T11:12:47.000Z,84.33
2022-08-31T11:14:02.000Z,85.09
2022-08-31T11:14:53.000Z,85.69
2022-08-31T11:15:59.000Z,85.59
2022-08-31T11:16:52.000Z,85.42
2022-08-31T11:17:56.000Z,86.18
2022-08-31T11:19:00.000Z,86.38
2022-08-31T11:20:12.000Z,85.08
2022-08-31T11:20:52.000Z,84.60
2022-08-31T11:22:03.000Z,84.74
2022-08-31T11:22:58.000Z,85.83
2022-08-31T11:23:58.000Z,86.60
2022-08-31T11:24:54.000Z,86.30
2022-08-31T11:25:56.000Z,85.93
2022-08-31T11:26:53.000Z,85.86
2022-08-31T11:27:51.000Z,85.92
2022-08-31T11:28:49.000Z,84.99
2022-08-31T11:29:52.000Z,84.52
2022-08-31T11:30:45.000Z,84.59
2022-08-31T11:31:43.000Z,84.59
2022-08-31T11:32:51.000Z,86.01
2022-08-31T11:33:46.000Z,85.73
2022-08-31T11:34:51.000Z,83.91
2022-08-31T11:35:58.000Z,84.68
2022-08-31T11:36:49.000Z,87.08
2022-08-31T11:37:51.000Z,84.56
2022-08-31T11:38:54.000Z,85.08
2022-08-31T11:39:44.000Z,85.72
2022-08-31T11:40:58.000Z,86.25
2022-08-31T11:41:48.000Z,85.18
2022-08-31T11:43:00.000Z,85.73
2022-08-31T11:43:45.000Z,84.81
2022-08-31T11:44:44.000Z,85.77
2022-08-31T11:45:42.000Z,85.27
2022-08-31T11:46:58.000Z,86.39
2022-08-31T11:47:42.000Z,85.00
2022-08-31T11:49:05.000Z,85.64
2022-08-31T11:49:48.000Z,85.25
2022-08-31T11:51:00.000Z,85.23
2022-08-31T11:51:44.000Z,85.20
2022-08-31T11:52:48.000Z,85.45
2022-08-31T11:53:42.000Z,86.01
2022-08-31T11:54:59.000Z,85.00
2022-08-31T11:55:47.000Z,84.64
2022-08-31T11:56:44.000Z,85.87
2022-08-31T11:57:53.000Z,85.12
2022-08-31T11:58:43.000Z,85.26
2022-08-31T11:59:49.000Z,85.13
2022-08-31T12:00:56.000Z,84.32
2022-08-31T12:01:43.000Z,84.44
2022-08-31T12:02:43.000Z,85.27
2022-08-31T12:03:49.000Z,84.30
2022-08-31T12:04:55.000Z,84.95
2022-08-31T12:05:56.000Z,84.82
2022-08-31T12:06:57.000Z,85.04
2022-08-31T12:07:46.000Z,84.92
2022-08-31T12:09:24.000Z,84.11
2022-08-31T12:10:05.000Z,84.33
2022-08-31T12:10:52.000Z,84.55
2022-08-31T12:12:00.000Z,84.51
2022-08-31T12:12:54.000Z,84.23
2022-08-31T12:13:53.000Z,84.60
2022-08-31T12:14:59.000Z,84.83
2022-08-31T12:15:55.000Z,84.43
2022-08-31T12:17:05.000Z,83.15
2022-08-31T12:17:59.000Z,83.41
2022-08-31T12:18:53.000Z,83.53
2022-08-31T12:19:59.000Z,83.22
2022-08-31T12:20:58.000Z,83.86
2022-08-31T12:21:58.000Z,84.07
2022-08-31T12:23:18.000Z,83.38
2022-08-31T12:24:07.000Z,83.41
2022-08-31T12:25:02.000Z,84.17
2022-08-31T12:26:01.000Z,84.14
2022-08-31T12:27:19.000Z,83.04
2022-08-31T12:28:00.000Z,82.60
2022-08-31T12:28:53.000Z,82.80
2022-08-31T12:29:43.000Z,82.76
2022-08-31T12:30:50.000Z,81.89
2022-08-31T12:32:10.000Z,81.91
2022-08-31T12:32:47.000Z,81.63
2022-08-31T12:33:55.000Z,82.06
2022-08-31T12:35:03.000Z,81.04
2022-08-31T12:35:45.000Z,80.42
2022-08-31T12:36:43.000Z,81.16
2022-08-31T12:37:43.000Z,79.95
2022-08-31T12:38:43.000Z,80.04
2022-08-31T12:39:42.000Z,80.10
2022-08-31T12:40:49.000Z,79.96
2022-08-31T12:41:50.000Z,80.54
2022-08-31T12:42:53.000Z,80.69
2022-08-31T12:43:46.000Z,80.32
2022-08-31T12:44:50.000Z,81.32
2022-08-31T12:45:56.000Z,80.41
2022-08-31T12:46:53.000Z,79.12
2022-08-31T12:48:04.000Z,79.34
2022-08-31T12:49:01.000Z,79.95
2022-08-31T12:49:52.000Z,79.23
2022-08-31T12:50:57.000Z,78.82
2022-08-31T12:51:56.000Z,79.29
2022-08-31T12:52:52.000Z,78.79